Unicom:                    122.8

AWOS:                  118.275

Elevation           1458’ MSL

TPA:                   2500’ MSL

06/24:         5003’ L   75’ W

PAPI:       06/Left     24/Left

(Operate lights on unicom freq.)

Traffic Pattern: Left

Beacon: Sunset to Sunrise

Windsock: yes, lighted

Segmented Circle: No

 

Cleveland Center: 126.72/291.65

FSS: Altoona

[Source: ADDS]
METAR
KFKL 212256Z AUTO 22006KT 10SM CLR M02/M12 A3038 RMK AO2 SLP315 T10221122 FZRANO =
KFKL 212335Z 2200/2224 26008KT P6SM SKC FM220900 VRB05KT P6SM SKC WS020/27040KT FM221200 VRB05KT P6SM SKC
TAF
KFKL 212335Z 2200/2224 26008KT P6SM SKC FM220900 VRB05KT P6SM SKC WS020/27040KT FM221200 VRB05KT P6SM SKC =
[Source: ADDS]
METAR
KDUJ 212253Z AUTO 24007KT 10SM CLR M03/M13 A3035 RMK AO2 SLP304 T10281128 =
KDUJ 212335Z 2200/2224 26005KT P6SM SKC FM220900 VRB05KT P6SM SKC WS020/27040KT FM221200 25008G15KT P6SM SKC
TAF
KDUJ 212335Z 2200/2224 26005KT P6SM SKC FM220900 VRB05KT P6SM SKC WS020/27040KT FM221200 25008G15KT P6SM SKC =

Airport Information. 

Runway Length: 5003ft x 75ft

Runways 6/24

Traffic Pattern: Left

PAPI’s: 2 light PAPI on left of both 6/24

TPA: 2500 msl

Field Elevation: 1458 msl

Surface: Asphalt

Beacon: Operates Sunset-Sunrise

Pilot Controlled Lighting:  yes 122.8

 

Fuel:

Jet-A w/prist

100 LL

Center point fueling available upon request.

 

Unicom Frequency: 122.8

AWOS Frequency: 118.27  (814-227-2899)

 

Cleveland Center: 126.72 (440-774-0442)

 

GPS Approach Plates for 6/24 download here: http://www.airnav.com/airport/KAXQ

[Source: ADDS]
METAR
KFKL 212256Z AUTO 22006KT 10SM CLR M02/M12 A3038 RMK AO2 SLP315 T10221122 FZRANO =
KFKL 212335Z 2200/2224 26008KT P6SM SKC FM220900 VRB05KT P6SM SKC WS020/27040KT FM221200 VRB05KT P6SM SKC
TAF
KFKL 212335Z 2200/2224 26008KT P6SM SKC FM220900 VRB05KT P6SM SKC WS020/27040KT FM221200 VRB05KT P6SM SKC =
[Source: ADDS]
METAR
KDUJ 212253Z AUTO 24007KT 10SM CLR M03/M13 A3035 RMK AO2 SLP304 T10281128 =
KDUJ 212335Z 2200/2224 26005KT P6SM SKC FM220900 VRB05KT P6SM SKC WS020/27040KT FM221200 25008G15KT P6SM SKC
TAF
KDUJ 212335Z 2200/2224 26005KT P6SM SKC FM220900 VRB05KT P6SM SKC WS020/27040KT FM221200 25008G15KT P6SM SKC =